createdAt,value
2018-08-16T00:00:39.871Z,3.97
2018-08-16T00:03:09.875Z,3.07
2018-08-16T00:05:39.600Z,3.53
2018-08-16T00:08:09.394Z,2.90
2018-08-16T00:10:39.159Z,2.80
2018-08-16T00:13:08.908Z,2.90
2018-08-16T00:15:38.632Z,3.33
2018-08-16T00:18:08.319Z,2.60
2018-08-16T00:20:37.996Z,3.80
2018-08-16T00:23:07.653Z,3.40
2018-08-16T00:25:37.576Z,2.80
2018-08-16T00:28:07.801Z,3.27
2018-08-16T00:30:37.587Z,3.20
2018-08-16T00:33:07.360Z,3.77
2018-08-16T00:35:37.053Z,3.27
2018-08-16T00:38:06.741Z,3.60
2018-08-16T00:40:36.518Z,3.40
2018-08-16T00:43:06.657Z,3.17
2018-08-16T00:45:36.401Z,2.70
2018-08-16T00:48:06.203Z,2.97
2018-08-16T00:50:35.997Z,3.60
2018-08-16T00:53:06.015Z,2.60
2018-08-16T00:55:35.685Z,3.23
2018-08-16T00:58:05.944Z,3.97
2018-08-16T01:00:35.654Z,3.93
2018-08-16T01:03:05.506Z,4.30
2018-08-16T01:05:35.279Z,3.30
2018-08-16T01:08:05.053Z,2.87
2018-08-16T01:10:34.756Z,3.27
2018-08-16T01:13:04.700Z,3.60
2018-08-16T01:15:34.543Z,3.37
2018-08-16T01:18:04.452Z,3.20
2018-08-16T01:20:34.175Z,3.80
2018-08-16T01:23:03.874Z,3.80
2018-08-16T01:25:33.714Z,3.07
2018-08-16T01:28:03.401Z,3.43
2018-08-16T01:30:33.111Z,2.60
2018-08-16T01:33:02.850Z,3.27
2018-08-16T01:35:32.585Z,3.50
2018-08-16T01:38:02.495Z,3.50
2018-08-16T01:40:32.365Z,3.30
2018-08-16T01:43:02.172Z,3.50
2018-08-16T01:45:31.977Z,4.10
2018-08-16T01:48:01.925Z,3.83
2018-08-16T01:50:31.634Z,4.03
2018-08-16T01:53:01.482Z,3.40
2018-08-16T01:55:31.319Z,3.43
2018-08-16T01:58:01.012Z,3.10
2018-08-16T02:00:30.877Z,4.50
2018-08-16T02:03:00.713Z,3.27
2018-08-16T02:05:30.413Z,3.53
2018-08-16T02:08:00.235Z,3.87
2018-08-16T02:10:30.108Z,2.90
2018-08-16T02:12:59.893Z,3.10
2018-08-16T02:15:29.654Z,4.33
2018-08-16T02:17:59.448Z,3.47
2018-08-16T02:20:29.188Z,3.17
2018-08-16T02:22:59.047Z,4.00
2018-08-16T02:25:28.787Z,3.57
2018-08-16T02:27:58.496Z,3.97
2018-08-16T02:30:28.208Z,3.70
2018-08-16T02:32:58.230Z,3.80
2018-08-16T02:35:28.069Z,4.50
2018-08-16T02:37:57.800Z,4.10
2018-08-16T02:40:27.584Z,4.37
2018-08-16T02:42:57.355Z,4.37
2018-08-16T02:45:27.143Z,3.80
2018-08-16T02:47:56.901Z,4.10
2018-08-16T02:50:26.486Z,3.50
2018-08-16T02:52:56.184Z,5.07
2018-08-16T02:55:25.931Z,3.83
2018-08-16T02:57:55.625Z,4.50
2018-08-16T03:00:25.298Z,4.53
2018-08-16T03:02:55.489Z,4.80
2018-08-16T03:05:25.339Z,3.50
2018-08-16T03:07:55.104Z,4.73
2018-08-16T03:10:24.835Z,4.33
2018-08-16T03:12:54.586Z,4.17
2018-08-16T03:15:24.290Z,3.77
2018-08-16T03:17:54.088Z,4.17
2018-08-16T03:20:23.811Z,3.80
2018-08-16T03:22:53.649Z,3.43
2018-08-16T03:25:23.530Z,5.13
2018-08-16T03:27:53.293Z,5.60
2018-08-16T03:30:23.114Z,3.83
2018-08-16T03:32:52.802Z,4.20
2018-08-16T03:35:22.687Z,5.13
2018-08-16T03:37:52.300Z,4.13
2018-08-16T03:40:21.967Z,5.27
2018-08-16T03:42:51.722Z,5.27
2018-08-16T03:45:21.427Z,5.50
2018-08-16T03:47:51.300Z,6.10
2018-08-16T03:50:21.074Z,6.13
2018-08-16T03:52:50.859Z,6.00
2018-08-16T03:55:20.761Z,7.20
2018-08-16T03:57:50.511Z,7.33
2018-08-16T04:00:20.185Z,5.30
2018-08-16T04:02:49.853Z,7.17
2018-08-16T04:05:19.969Z,10.00
2018-08-16T04:07:49.688Z,9.90
2018-08-16T04:10:19.354Z,6.90
2018-08-16T04:12:49.137Z,9.20
2018-08-16T04:15:18.877Z,9.10
2018-08-16T04:17:48.704Z,8.73
2018-08-16T04:20:18.422Z,10.13
2018-08-16T04:22:48.177Z,7.33
2018-08-16T04:25:17.941Z,6.17
2018-08-16T04:27:47.665Z,6.07
2018-08-16T04:30:17.405Z,6.30
2018-08-16T04:32:47.130Z,6.00
2018-08-16T04:35:16.962Z,6.20
2018-08-16T04:37:46.751Z,5.93
2018-08-16T04:40:16.489Z,6.63
2018-08-16T04:42:46.313Z,5.63
2018-08-16T04:45:16.094Z,6.30
2018-08-16T04:47:45.729Z,5.93
2018-08-16T04:50:15.643Z,4.80
2018-08-16T04:52:45.378Z,5.20
2018-08-16T04:55:15.352Z,4.47
2018-08-16T04:57:45.271Z,5.50
2018-08-16T05:00:15.086Z,5.40
2018-08-16T05:02:44.820Z,5.30
2018-08-16T05:05:14.666Z,4.50
2018-08-16T05:07:44.716Z,5.63
2018-08-16T05:10:14.605Z,4.50
2018-08-16T05:12:44.387Z,4.23
2018-08-16T05:15:14.792Z,4.17
2018-08-16T05:17:45.476Z,4.57
2018-08-16T05:20:15.362Z,5.60
2018-08-16T05:22:45.205Z,5.40
2018-08-16T05:25:14.948Z,4.87
2018-08-16T05:27:45.288Z,6.47
2018-08-16T05:30:15.102Z,6.37
2018-08-16T05:32:44.980Z,7.23
2018-08-16T05:35:14.813Z,6.77
2018-08-16T05:37:44.580Z,9.97
2018-08-16T05:40:14.397Z,10.83
2018-08-16T05:42:44.140Z,5.90
2018-08-16T05:45:13.998Z,6.90
2018-08-16T05:47:43.661Z,6.47
2018-08-16T05:50:13.969Z,8.53
2018-08-16T05:52:43.712Z,6.60
2018-08-16T05:55:13.581Z,7.40
2018-08-16T05:57:43.762Z,9.37
2018-08-16T06:00:14.924Z,7.80
2018-08-16T06:02:44.769Z,7.43
2018-08-16T06:05:14.719Z,6.50
2018-08-16T06:07:44.532Z,6.20
2018-08-16T06:10:14.647Z,5.67
2018-08-16T06:12:44.492Z,7.13
2018-08-16T06:15:14.566Z,6.10
2018-08-16T06:17:44.481Z,4.50
2018-08-16T06:20:14.404Z,7.90
2018-08-16T06:22:44.191Z,7.00
2018-08-16T06:25:14.880Z,5.87
2018-08-16T06:27:45.493Z,5.10
2018-08-16T06:30:17.880Z,5.30
2018-08-16T06:32:47.911Z,5.20
2018-08-16T06:35:17.786Z,6.23
2018-08-16T06:37:48.437Z,5.27
2018-08-16T06:40:18.967Z,5.77
2018-08-16T06:42:49.499Z,5.03
2018-08-16T06:45:19.357Z,4.80
2018-08-16T06:47:51.259Z,5.23
2018-08-16T06:50:21.226Z,5.33
2018-08-16T06:52:51.144Z,4.80
2018-08-16T06:55:20.857Z,4.73
2018-08-16T06:57:51.390Z,4.90
2018-08-16T07:00:21.342Z,5.63
2018-08-16T07:02:51.252Z,6.27
2018-08-16T07:05:21.077Z,5.03
2018-08-16T07:07:50.659Z,4.50
2018-08-16T07:10:20.745Z,5.17
2018-08-16T07:12:50.708Z,4.57
2018-08-16T07:15:20.465Z,5.13
2018-08-16T07:17:50.421Z,5.57
2018-08-16T07:20:20.098Z,4.90
2018-08-16T07:22:50.164Z,6.50
2018-08-16T07:25:19.675Z,5.40
2018-08-16T07:27:49.548Z,5.37
2018-08-16T07:30:19.202Z,4.87
2018-08-16T07:32:49.055Z,5.90
2018-08-16T07:35:18.777Z,5.20
2018-08-16T07:37:48.720Z,5.57
2018-08-16T07:40:18.544Z,5.43
2018-08-16T07:42:48.221Z,5.40
2018-08-16T07:45:17.928Z,4.80
2018-08-16T07:47:47.747Z,5.27
2018-08-16T07:50:17.428Z,5.63
2018-08-16T07:52:47.341Z,5.33
2018-08-16T07:55:16.984Z,4.90
2018-08-16T07:57:46.703Z,6.07
2018-08-16T08:00:18.899Z,5.47
2018-08-16T08:02:48.624Z,5.40
2018-08-16T08:05:18.433Z,5.10
2018-08-16T08:07:48.873Z,4.67
2018-08-16T08:10:18.628Z,4.57
2018-08-16T08:12:48.717Z,5.47
2018-08-16T08:15:18.506Z,4.47
2018-08-16T08:17:48.225Z,5.70
2018-08-16T08:20:18.016Z,5.33
2018-08-16T08:22:47.932Z,4.50
2018-08-16T08:25:17.825Z,3.50
2018-08-16T08:27:47.619Z,3.50
2018-08-16T08:30:18.279Z,3.70
2018-08-16T08:32:48.154Z,4.40
2018-08-16T08:35:18.124Z,4.10
2018-08-16T08:38:00.988Z,3.43
2018-08-16T08:40:30.838Z,2.83
2018-08-16T08:43:00.546Z,2.93
2018-08-16T08:45:30.270Z,3.50
2018-08-16T08:48:00.450Z,3.20
2018-08-16T08:50:30.361Z,3.43
2018-08-16T08:53:10.582Z,1.37
2018-08-16T08:55:50.741Z,2.33
2018-08-16T08:58:31.671Z,2.27
2018-08-16T09:01:01.333Z,2.60
2018-08-16T09:03:31.259Z,2.00
2018-08-16T09:06:00.905Z,2.00
2018-08-16T09:08:32.475Z,2.20
2018-08-16T09:11:14.826Z,1.60
2018-08-16T09:13:56.783Z,1.70
2018-08-16T09:16:31.760Z,1.93
2018-08-16T09:19:01.940Z,2.00
2018-08-16T09:21:32.269Z,2.30
2018-08-16T09:24:02.238Z,2.17
2018-08-16T09:26:37.317Z,2.37
2018-08-16T09:29:19.536Z,1.70
2018-08-16T09:34:05.249Z,1.17
2018-08-16T09:36:35.477Z,1.23
2018-08-16T09:39:07.350Z,1.47
2018-08-16T09:41:37.387Z,1.33
2018-08-16T09:44:07.513Z,1.10
2018-08-16T09:47:06.199Z,1.63
2018-08-16T09:49:53.249Z,0.80
2018-08-16T09:52:23.526Z,1.07
2018-08-16T09:54:53.210Z,1.93
2018-08-16T09:57:22.872Z,1.40
2018-08-16T09:59:52.711Z,1.47
2018-08-16T10:02:22.368Z,1.53
2018-08-16T10:04:51.977Z,1.73
2018-08-16T10:07:21.713Z,1.47
2018-08-16T10:09:51.335Z,1.50
2018-08-16T10:12:21.040Z,2.30
2018-08-16T10:14:50.800Z,1.43
2018-08-16T10:17:20.538Z,1.17
2018-08-16T10:19:50.501Z,1.90
2018-08-16T10:22:20.336Z,1.83
2018-08-16T10:24:50.136Z,1.23
2018-08-16T10:27:19.964Z,1.90
2018-08-16T10:29:49.742Z,1.80
2018-08-16T10:32:19.516Z,1.90
2018-08-16T10:34:49.288Z,1.40
2018-08-16T10:37:18.937Z,1.93
2018-08-16T10:39:48.703Z,2.00
2018-08-16T10:42:18.490Z,1.87
2018-08-16T10:44:48.293Z,1.43
2018-08-16T10:47:18.076Z,1.70
2018-08-16T10:49:47.764Z,1.70
2018-08-16T10:52:17.499Z,1.43
2018-08-16T10:54:47.352Z,1.97
2018-08-16T10:57:17.229Z,1.40
2018-08-16T10:59:47.081Z,1.53
2018-08-16T11:02:16.850Z,1.93
2018-08-16T11:04:46.574Z,1.50
2018-08-16T11:07:16.419Z,1.70
2018-08-16T11:09:46.863Z,1.70
2018-08-16T11:12:16.752Z,1.30
2018-08-16T11:14:46.472Z,1.50
2018-08-16T11:17:16.603Z,1.23
2018-08-16T11:19:46.306Z,1.73
2018-08-16T11:22:15.984Z,2.13
2018-08-16T11:24:45.938Z,1.67
2018-08-16T11:27:15.768Z,1.53
2018-08-16T11:29:45.416Z,1.53
2018-08-16T11:32:15.223Z,1.57
2018-08-16T11:34:44.927Z,1.57
2018-08-16T11:37:15.179Z,1.90
2018-08-16T11:39:44.891Z,1.37
2018-08-16T11:42:14.592Z,1.37
2018-08-16T11:44:44.561Z,1.90
2018-08-16T11:47:14.196Z,2.20
2018-08-16T11:49:43.831Z,1.80
2018-08-16T11:52:13.563Z,1.73
2018-08-16T11:54:43.289Z,1.60
2018-08-16T11:57:12.961Z,2.40
2018-08-16T11:59:42.820Z,1.63
2018-08-16T12:02:12.723Z,2.10
2018-08-16T12:04:42.452Z,1.60
2018-08-16T12:07:12.108Z,1.70
2018-08-16T12:09:41.821Z,1.57
2018-08-16T12:12:11.597Z,1.23
2018-08-16T12:14:41.420Z,1.83
2018-08-16T12:17:11.122Z,1.80
2018-08-16T12:19:41.271Z,2.00
2018-08-16T12:22:10.914Z,1.60
2018-08-16T12:24:40.652Z,1.10
2018-08-16T12:27:10.401Z,1.53
2018-08-16T12:29:40.121Z,1.40
2018-08-16T12:32:09.976Z,1.47
2018-08-16T12:34:39.867Z,1.80
2018-08-16T12:37:09.776Z,1.60
2018-08-16T12:39:39.877Z,1.37
2018-08-16T12:42:09.680Z,1.30
2018-08-16T12:44:39.513Z,1.97
2018-08-16T12:47:09.309Z,1.77
2018-08-16T12:49:39.234Z,1.53
2018-08-16T12:52:09.858Z,1.93
2018-08-16T12:54:40.555Z,1.73
2018-08-16T12:57:10.329Z,1.60
2018-08-16T12:59:40.137Z,1.93
2018-08-16T13:02:09.926Z,1.57
2018-08-16T13:04:41.694Z,1.60
2018-08-16T13:07:11.562Z,1.60
2018-08-16T13:09:41.334Z,3.10
2018-08-16T13:12:11.107Z,1.77
2018-08-16T13:14:41.789Z,2.10
2018-08-16T13:17:11.499Z,2.60
2018-08-16T13:19:41.288Z,1.40
2018-08-16T13:22:11.345Z,1.90
2018-08-16T13:24:41.019Z,1.37
2018-08-16T13:27:10.864Z,1.73
2018-08-16T13:29:40.709Z,1.80
2018-08-16T13:32:10.445Z,1.63
2018-08-16T13:34:41.116Z,1.70
2018-08-16T13:37:10.865Z,1.70
2018-08-16T13:39:40.572Z,2.07
2018-08-16T13:42:10.229Z,1.63
2018-08-16T13:44:39.937Z,1.47
2018-08-16T13:47:09.548Z,1.90
2018-08-16T13:49:39.733Z,2.60
2018-08-16T13:52:10.450Z,2.10
2018-08-16T13:54:40.962Z,2.67
2018-08-16T13:57:10.927Z,2.60
2018-08-16T13:59:40.655Z,1.70
2018-08-16T14:02:10.557Z,2.00
2018-08-16T14:04:40.662Z,11.80
2018-08-16T14:07:10.431Z,4.27
2018-08-16T14:09:40.163Z,2.40
2018-08-16T14:12:09.961Z,3.17
2018-08-16T14:14:39.657Z,2.20
2018-08-16T14:17:09.441Z,2.10
2018-08-16T14:19:39.190Z,2.17
2018-08-16T14:22:09.041Z,2.37
2018-08-16T14:24:39.174Z,2.23
2018-08-16T14:27:08.933Z,2.20
2018-08-16T14:29:38.804Z,2.03
2018-08-16T14:32:08.763Z,2.30
2018-08-16T14:34:38.444Z,1.57
2018-08-16T14:37:08.292Z,2.67
2018-08-16T14:39:37.936Z,2.33
2018-08-16T14:42:07.832Z,2.57
2018-08-16T14:44:37.629Z,1.93
2018-08-16T14:47:08.046Z,2.53
2018-08-16T14:49:37.845Z,2.60
2018-08-16T14:52:07.599Z,1.80
2018-08-16T14:54:37.474Z,3.10
2018-08-16T14:57:07.965Z,2.27
2018-08-16T14:59:37.668Z,2.60
2018-08-16T15:02:07.490Z,2.83
2018-08-16T15:04:37.288Z,2.90
2018-08-16T15:07:07.113Z,2.93
2018-08-16T15:09:36.841Z,3.17
2018-08-16T15:12:06.738Z,2.23
2018-08-16T15:14:36.664Z,2.50
2018-08-16T15:17:06.289Z,2.90
2018-08-16T15:20:07.190Z,2.50
2018-08-16T15:22:36.793Z,2.87
2018-08-16T15:25:07.519Z,2.27
2018-08-16T15:27:37.224Z,2.20
2018-08-16T15:30:09.093Z,2.13
2018-08-16T15:32:39.049Z,3.23
2018-08-16T15:35:08.958Z,3.43
2018-08-16T15:37:38.870Z,3.00
2018-08-16T15:40:08.843Z,2.63
2018-08-16T15:42:39.972Z,2.83
2018-08-16T15:45:09.952Z,2.37
2018-08-16T15:47:39.826Z,2.70
2018-08-16T15:50:09.656Z,3.10
2018-08-16T15:52:40.431Z,3.70
2018-08-16T15:55:10.316Z,2.67
2018-08-16T15:57:40.154Z,3.80
2018-08-16T16:00:11.882Z,5.73
2018-08-16T16:02:43.918Z,6.30
2018-08-16T16:05:13.898Z,5.13
2018-08-16T16:07:43.983Z,3.73
2018-08-16T16:10:13.692Z,2.37
2018-08-16T16:12:46.580Z,3.00
2018-08-16T16:15:16.398Z,2.67
2018-08-16T16:17:46.563Z,3.50
2018-08-16T16:20:16.321Z,2.97
2018-08-16T16:22:46.523Z,2.93
2018-08-16T16:25:16.871Z,2.83
2018-08-16T16:27:46.629Z,16.63
2018-08-16T16:30:16.480Z,6.53
2018-08-16T16:32:46.614Z,10.23
2018-08-16T16:35:16.484Z,21.37
2018-08-16T16:37:46.392Z,11.83
2018-08-16T16:40:16.134Z,4.93
2018-08-16T16:42:45.851Z,4.67
2018-08-16T16:45:15.542Z,4.13
2018-08-16T16:47:45.351Z,4.40
2018-08-16T16:50:15.086Z,3.07
2018-08-16T16:52:44.830Z,3.53
2018-08-16T16:55:14.523Z,3.23
2018-08-16T16:57:44.312Z,3.13
2018-08-16T17:00:14.167Z,2.60
2018-08-16T17:02:43.883Z,2.73
2018-08-16T17:05:13.670Z,3.03
2018-08-16T17:07:43.352Z,3.00
2018-08-16T17:10:14.146Z,4.73
2018-08-16T17:12:44.525Z,4.87
2018-08-16T17:15:14.370Z,5.07
2018-08-16T17:17:43.976Z,3.73
2018-08-16T17:20:13.745Z,4.10
2018-08-16T17:22:43.573Z,3.43
2018-08-16T17:25:13.297Z,3.80
2018-08-16T17:27:43.428Z,4.50
2018-08-16T17:30:13.206Z,3.40
2018-08-16T17:32:42.976Z,4.87
2018-08-16T17:35:12.609Z,4.77
2018-08-16T17:37:42.237Z,3.17
2018-08-16T17:40:12.153Z,3.70
2018-08-16T17:42:41.784Z,3.77
2018-08-16T17:45:11.607Z,3.53
2018-08-16T17:47:41.225Z,3.77
2018-08-16T17:50:11.353Z,3.10
2018-08-16T17:52:41.172Z,3.73
2018-08-16T17:55:11.010Z,3.63
2018-08-16T17:57:40.744Z,2.50
2018-08-16T18:00:12.105Z,2.90
2018-08-16T18:02:43.053Z,3.47
2018-08-16T18:05:12.883Z,3.50
2018-08-16T18:07:42.697Z,4.13
2018-08-16T18:10:12.569Z,3.23
2018-08-16T18:12:42.798Z,2.80
2018-08-16T18:15:13.154Z,3.23
2018-08-16T18:17:42.817Z,3.33
2018-08-16T18:20:12.463Z,3.50
2018-08-16T18:22:42.256Z,4.00
2018-08-16T18:25:12.056Z,3.50
2018-08-16T18:27:41.993Z,3.53
2018-08-16T18:30:13.462Z,3.90
2018-08-16T18:32:43.630Z,3.90
2018-08-16T18:35:13.773Z,3.50
2018-08-16T18:37:43.769Z,2.90
2018-08-16T18:40:13.948Z,3.77
2018-08-16T18:42:44.942Z,3.03
2018-08-16T18:45:15.115Z,3.93
2018-08-16T18:47:45.131Z,3.97
2018-08-16T18:50:15.036Z,4.10
2018-08-16T18:52:45.768Z,4.40
2018-08-16T18:55:15.578Z,4.60
2018-08-16T18:57:45.418Z,5.17
2018-08-16T19:00:15.281Z,4.50
2018-08-16T19:02:45.014Z,4.50
2018-08-16T19:05:14.878Z,3.00
2018-08-16T19:07:44.636Z,3.23
2018-08-16T19:10:14.307Z,3.90
2018-08-16T19:12:44.091Z,3.60
2018-08-16T19:15:13.915Z,3.80
2018-08-16T19:17:43.869Z,4.30
2018-08-16T19:20:13.604Z,3.83
2018-08-16T19:22:43.927Z,3.93
2018-08-16T19:25:13.829Z,4.60
2018-08-16T19:27:43.682Z,3.57
2018-08-16T19:30:13.513Z,4.53
2018-08-16T19:32:43.658Z,3.83
2018-08-16T19:35:13.467Z,4.47
2018-08-16T19:37:43.235Z,5.43
2018-08-16T19:40:13.260Z,4.43
2018-08-16T19:42:42.936Z,4.73
2018-08-16T19:45:12.834Z,4.37
2018-08-16T19:47:42.555Z,4.80
2018-08-16T19:50:12.992Z,4.33
2018-08-16T19:52:42.818Z,3.47
2018-08-16T19:55:12.697Z,4.40
2018-08-16T19:57:42.488Z,3.90
2018-08-16T20:00:12.495Z,5.03
2018-08-16T20:02:42.276Z,4.93
2018-08-16T20:05:12.070Z,4.50
2018-08-16T20:07:41.797Z,3.00
2018-08-16T20:10:12.183Z,3.57
2018-08-16T20:12:42.132Z,4.20
2018-08-16T20:15:12.018Z,4.47
2018-08-16T20:17:41.880Z,4.10
2018-08-16T20:20:11.668Z,4.80
2018-08-16T20:22:41.784Z,3.70
2018-08-16T20:25:11.544Z,5.10
2018-08-16T20:27:41.171Z,4.30
2018-08-16T20:30:11.142Z,3.63
2018-08-16T20:32:41.062Z,5.80
2018-08-16T20:35:11.248Z,4.53
2018-08-16T20:37:40.943Z,3.60
2018-08-16T20:40:10.783Z,4.53
2018-08-16T20:42:40.631Z,3.20
2018-08-16T20:45:10.466Z,4.33
2018-08-16T20:47:40.188Z,3.77
2018-08-16T20:50:10.058Z,2.80
2018-08-16T20:52:39.801Z,4.10
2018-08-16T20:55:09.655Z,3.80
2018-08-16T20:57:39.392Z,4.17
2018-08-16T21:00:10.841Z,4.33
2018-08-16T21:02:41.356Z,4.23
2018-08-16T21:05:11.196Z,4.37
2018-08-16T21:07:41.088Z,4.50
2018-08-16T21:10:11.646Z,4.00
2018-08-16T21:12:42.008Z,4.63
2018-08-16T21:15:11.903Z,4.20
2018-08-16T21:17:41.743Z,4.10
2018-08-16T21:20:11.567Z,3.60
2018-08-16T21:22:41.501Z,3.60
2018-08-16T21:25:11.299Z,3.80
2018-08-16T21:27:41.100Z,4.13
2018-08-16T21:30:10.991Z,4.97
2018-08-16T21:32:40.898Z,5.40
2018-08-16T21:35:10.543Z,4.67
2018-08-16T21:37:40.471Z,4.40
2018-08-16T21:40:10.162Z,4.43
2018-08-16T21:42:39.759Z,3.53
2018-08-16T21:45:09.544Z,4.33
2018-08-16T21:47:39.168Z,3.10
2018-08-16T21:50:09.590Z,4.00
2018-08-16T21:52:39.325Z,4.40
2018-08-16T21:55:09.133Z,3.93
2018-08-16T21:57:38.870Z,5.20
2018-08-16T22:00:10.208Z,3.60
2018-08-16T22:02:40.111Z,4.20
2018-08-16T22:05:09.866Z,3.70
2018-08-16T22:08:11.317Z,4.87
2018-08-16T22:10:42.481Z,3.60
2018-08-16T22:13:12.371Z,3.60
2018-08-16T22:15:42.290Z,4.00
2018-08-16T22:18:12.186Z,4.40
2018-08-16T22:20:42.273Z,3.30
2018-08-16T22:23:12.202Z,3.97
2018-08-16T22:25:42.119Z,3.37
2018-08-16T22:28:12.009Z,5.40
2018-08-16T22:30:41.912Z,3.67
2018-08-16T22:33:12.108Z,3.87
2018-08-16T22:35:41.817Z,4.30
2018-08-16T22:38:12.111Z,3.97
2018-08-16T22:40:41.916Z,6.20
2018-08-16T22:43:11.721Z,3.40
2018-08-16T22:45:41.593Z,4.50
2018-08-16T22:48:11.315Z,3.77
2018-08-16T22:50:41.116Z,4.20
2018-08-16T22:53:11.026Z,5.30
2018-08-16T22:55:40.967Z,3.77
2018-08-16T22:58:10.852Z,4.07
2018-08-16T23:00:40.844Z,4.27
2018-08-16T23:03:10.928Z,4.37
2018-08-16T23:05:40.834Z,4.37
2018-08-16T23:08:10.735Z,4.87
2018-08-16T23:10:40.629Z,4.67
2018-08-16T23:13:10.548Z,4.30
2018-08-16T23:15:40.459Z,4.50
2018-08-16T23:18:10.540Z,4.40
2018-08-16T23:20:40.425Z,3.83
2018-08-16T23:23:10.420Z,4.13
2018-08-16T23:25:40.316Z,3.83
2018-08-16T23:28:10.219Z,3.70
2018-08-16T23:30:40.124Z,4.20
2018-08-16T23:33:10.101Z,5.07
2018-08-16T23:35:40.129Z,4.67
2018-08-16T23:38:10.038Z,3.93
2018-08-16T23:40:40.508Z,4.53
2018-08-16T23:43:10.357Z,4.70
2018-08-16T23:45:40.231Z,4.10
2018-08-16T23:48:20.529Z,3.80
2018-08-16T23:50:51.362Z,4.90
2018-08-16T23:53:21.257Z,4.30
2018-08-16T23:55:51.149Z,4.80
2018-08-16T23:58:21.376Z,4.17
